Time;durP1;ratioP1;P1;durP2;ratioP2;P2;SDS_P1;SDS_P2;PMS_P1;PMS_P2;Temp;Humidity;BMP_temperature;BMP_pressure;BME280_temperature;BME280_humidity;BME280_pressure;Samples;Min_cycle;Max_cycle;Signal;HPM_P1;HPM_P2
2021/09/26 00:02:13;;;;;;;17.77;12.20;;;;;;;13.15;100.00;100785.49;1714347;82;20979;-87
2021/09/26 00:04:40;;;;;;;16.42;11.40;;;;;;;13.17;100.00;100782.74;1714363;82;20974;-85
2021/09/26 00:07:07;;;;;;;15.20;11.10;;;;;;;13.18;100.00;100783.91;1735353;82;20947;-85
2021/09/26 00:09:34;;;;;;;15.58;10.93;;;;;;;13.17;100.00;100783.59;1735125;82;21057;-86
2021/09/26 00:12:01;;;;;;;13.45;9.70;;;;;;;13.17;100.00;100778.36;1714496;82;21022;-86
2021/09/26 00:14:28;;;;;;;17.80;11.25;;;;;;;13.18;100.00;100777.38;1729514;81;21049;-87
2021/09/26 00:16:58;;;;;;;16.27;10.23;;;;;;;13.18;100.00;100776.06;1651232;85;21193;-86
2021/09/26 00:19:26;;;;;;;14.93;10.15;;;;;;;13.18;100.00;100772.64;1701356;83;21019;-86
2021/09/26 00:21:54;;;;;;;15.25;10.78;;;;;;;13.16;100.00;100768.86;1650915;85;21077;-86
2021/09/26 00:24:21;;;;;;;20.05;12.55;;;;;;;13.14;100.00;100765.53;1706979;82;21805;-85
2021/09/26 00:26:48;;;;;;;19.23;13.65;;;;;;;13.14;100.00;100766.02;1672492;84;21466;-85
2021/09/26 00:29:15;;;;;;;18.77;13.98;;;;;;;13.14;100.00;100759.48;1682638;83;20994;-87
2021/09/26 00:31:42;;;;;;;20.75;14.40;;;;;;;13.14;100.00;100760.80;1672998;84;21067;-88
2021/09/26 00:34:09;;;;;;;18.32;14.13;;;;;;;13.16;100.00;100766.70;1682664;83;21632;-87
2021/09/26 00:36:36;;;;;;;16.40;13.78;;;;;;;13.17;100.00;100763.13;1672672;84;21156;-87
2021/09/26 00:39:04;;;;;;;19.67;13.40;;;;;;;13.19;100.00;100764.66;1704763;82;21568;-86
2021/09/26 00:41:31;;;;;;;22.22;12.40;;;;;;;13.17;100.00;100762.67;1649702;84;21604;-87
2021/09/26 00:43:58;;;;;;;15.00;11.60;;;;;;;13.16;100.00;100762.78;1725448;82;21109;-87
2021/09/26 00:46:25;;;;;;;16.02;11.15;;;;;;;13.14;100.00;100768.64;1729896;82;21081;-88
2021/09/26 00:48:52;;;;;;;17.07;10.38;;;;;;;13.12;100.00;100766.13;1705868;83;21839;-86
2021/09/26 00:51:19;;;;;;;15.10;10.23;;;;;;;13.11;100.00;100754.02;1651840;84;21039;-87
2021/09/26 00:54:10;;;;;;;18.60;11.97;;;;;;;13.13;100.00;100754.72;1696885;83;21093;-87
2021/09/26 00:56:31;;;;;;;18.42;12.30;;;;;;;13.11;100.00;100755.31;1678120;83;21070;-88
2021/09/26 00:58:59;;;;;;;16.40;12.47;;;;;;;13.09;100.00;100754.64;1673286;85;21458;-87
2021/09/26 01:01:26;;;;;;;16.25;12.13;;;;;;;13.06;100.00;100755.70;1705026;82;21129;-87
2021/09/26 01:03:53;;;;;;;17.98;13.13;;;;;;;13.05;100.00;100758.45;1651062;84;20999;-87
2021/09/26 01:06:48;;;;;;;16.70;12.40;;;;;;;13.04;100.00;100768.09;1704127;82;21050;-85
2021/09/26 01:09:32;;;;;;;17.45;13.18;;;;;;;13.06;100.00;100764.03;1672722;85;21065;-86
2021/09/26 01:12:10;;;;;;;22.30;13.50;;;;;;;13.09;100.00;100753.33;1699045;83;21089;-86
2021/09/26 01:15:27;;;;;;;17.62;11.60;;;;;;;13.11;100.00;100750.09;1678598;84;21510;-87
2021/09/26 01:18:08;;;;;;;19.25;13.62;;;;;;;13.19;100.00;100754.20;1691546;84;20995;-86
2021/09/26 01:20:49;;;;;;;15.58;12.82;;;;;;;13.20;100.00;100748.51;1689206;84;21544;-88
2021/09/26 01:23:26;;;;;;;16.10;13.75;;;;;;;13.21;100.00;100741.02;1667029;83;21066;-89
2021/09/26 01:26:28;;;;;;;18.48;13.48;;;;;;;13.20;100.00;100741.48;1715307;81;21076;-87
2021/09/26 01:29:28;;;;;;;19.90;13.30;;;;;;;13.20;100.00;100738.05;1742760;82;21144;-89
2021/09/26 01:31:54;;;;;;;19.70;13.70;;;;;;;13.22;100.00;100739.57;1741527;82;21063;-86
2021/09/26 01:34:32;;;;;;;18.20;13.83;;;;;;;13.25;100.00;100748.48;1715200;82;21005;-88
2021/09/26 01:37:12;;;;;;;20.82;14.85;;;;;;;13.29;100.00;100753.42;1712128;82;21092;-88
2021/09/26 01:39:55;;;;;;;24.77;14.47;;;;;;;13.33;100.00;100749.61;1735778;80;21053;-87
2021/09/26 01:42:24;;;;;;;19.35;14.43;;;;;;;13.37;100.00;100753.61;1723227;82;21110;-86
2021/09/26 01:44:56;;;;;;;;;;;;;;;13.40;100.00;100756.82;1737378;82;20998;-86
2021/09/26 01:47:31;;;;;;;52.03;15.83;;;;;;;13.44;100.00;100758.70;1714368;82;20140;-86
2021/09/26 01:50:02;;;;;;;25.08;15.13;;;;;;;13.49;100.00;100753.92;1732906;82;21175;-90
2021/09/26 01:52:35;;;;;;;23.27;14.87;;;;;;;13.52;100.00;100751.52;1732634;82;21528;-88
2021/09/26 01:55:05;;;;;;;23.47;15.72;;;;;;;13.52;100.00;100760.18;1714130;82;21534;-88
2021/09/26 01:57:35;;;;;;;20.68;16.17;;;;;;;13.50;100.00;100751.63;1734830;82;20922;-88
2021/09/26 02:00:05;;;;;;;22.97;17.70;;;;;;;13.51;100.00;100749.86;1711892;83;21113;-88
2021/09/26 02:02:35;;;;;;;26.48;16.35;;;;;;;13.49;100.00;100755.69;1711602;82;21029;-87
2021/09/26 02:05:06;;;;;;;24.40;17.37;;;;;;;13.49;100.00;100749.15;1692347;83;21085;-87
2021/09/26 02:07:38;;;;;;;22.32;16.65;;;;;;;13.53;100.00;100749.25;1715064;82;21114;-87
2021/09/26 02:10:06;;;;;;;24.65;16.67;;;;;;;13.54;100.00;100756.14;1692283;83;21893;-86
2021/09/26 02:12:34;;;;;;;20.70;16.70;;;;;;;13.59;100.00;100753.10;1692594;83;21108;-87
2021/09/26 02:15:05;;;;;;;25.82;16.20;;;;;;;13.62;100.00;100744.52;1720349;81;21073;-88
2021/09/26 02:17:37;;;;;;;26.27;17.32;;;;;;;13.64;100.00;100747.02;1710430;82;21991;-89
2021/09/26 02:20:06;;;;;;;27.13;16.25;;;;;;;13.64;100.00;100755.68;1712130;82;21142;-89
2021/09/26 02:22:36;;;;;;;16.95;14.90;;;;;;;13.63;100.00;100753.20;1757759;81;21050;-88
2021/09/26 02:25:07;;;;;;;20.55;15.80;;;;;;;13.69;100.00;100760.52;1760872;81;21822;-89
2021/09/26 02:27:36;;;;;;;20.08;14.00;;;;;;;13.72;100.00;100755.03;1729824;81;21085;-88
2021/09/26 02:30:07;;;;;;;19.40;14.90;;;;;;;13.74;100.00;100759.63;1729808;82;21031;-89
2021/09/26 02:32:36;;;;;;;20.77;14.47;;;;;;;13.71;100.00;100762.53;1750239;80;21092;-88
2021/09/26 02:35:05;;;;;;;23.95;14.83;;;;;;;13.69;100.00;100760.06;1754710;80;21521;-89
2021/09/26 02:37:33;;;;;;;18.48;14.35;;;;;;;13.67;100.00;100758.05;1729966;81;21069;-89
2021/09/26 02:40:03;;;;;;;17.98;13.93;;;;;;;13.69;100.00;100757.91;1755080;80;21046;-88
2021/09/26 02:43:00;;;;;;;23.75;14.93;;;;;;;13.69;100.00;100753.98;1709161;82;21050;-88
2021/09/26 02:45:55;;;;;;;20.25;15.13;;;;;;;13.70;100.00;100760.88;1662735;84;21034;-88
2021/09/26 02:48:28;;;;;;;21.80;15.70;;;;;;;13.67;100.00;100768.52;1682523;84;21084;-89
2021/09/26 02:50:55;;;;;;;23.67;16.27;;;;;;;13.65;100.00;100768.30;1680433;84;21109;-90
2021/09/26 02:53:27;;;;;;;21.75;15.40;;;;;;;13.65;100.00;100768.30;1709595;82;21096;-88
2021/09/26 02:55:59;;;;;;;22.70;15.88;;;;;;;13.66;100.00;100764.23;1740609;81;21556;-89
2021/09/26 02:58:27;;;;;;;22.27;16.97;;;;;;;13.66;100.00;100768.66;1765646;80;21482;-89
2021/09/26 03:00:54;;;;;;;21.45;16.15;;;;;;;13.63;100.00;100767.59;1765896;80;21004;-88
2021/09/26 03:03:26;;;;;;;22.50;15.93;;;;;;;13.62;100.00;100762.83;1765801;80;21066;-86
2021/09/26 03:05:54;;;;;;;;;;;;;;;13.60;100.00;100766.54;1768750;80;21062;-88
2021/09/26 03:08:31;;;;;;;21.65;15.63;;;;;;;13.56;100.00;100770.75;1766036;80;20213;-88
2021/09/26 03:11:01;;;;;;;20.08;15.23;;;;;;;13.55;100.00;100769.09;1765392;80;21484;-89
2021/09/26 03:13:28;;;;;;;23.92;14.43;;;;;;;13.57;100.00;100775.48;1740682;81;21081;-89
2021/09/26 03:15:56;;;;;;;19.02;14.03;;;;;;;13.61;100.00;100778.66;1740668;81;21062;-92
2021/09/26 03:18:24;;;;;;;24.50;14.95;;;;;;;13.65;100.00;100781.38;1756553;80;21573;-91
2021/09/26 03:20:52;;;;;;;28.83;16.45;;;;;;;13.70;100.00;100776.58;1730885;81;21159;-88
2021/09/26 03:23:21;;;;;;;18.05;13.48;;;;;;;13.78;100.00;100783.28;1695217;82;21298;-91
2021/09/26 03:25:48;;;;;;;30.32;13.55;;;;;;;13.82;100.00;100778.61;1725333;81;21109;-88
2021/09/26 03:28:18;;;;;;;14.20;11.48;;;;;;;13.82;100.00;100785.16;1702377;83;21014;-88
2021/09/26 03:30:45;;;;;;;14.65;11.30;;;;;;;13.82;100.00;100789.08;1682865;83;21068;-88
2021/09/26 03:33:12;;;;;;;14.03;10.72;;;;;;;13.81;100.00;100793.50;1676567;84;21155;-87
2021/09/26 03:35:39;;;;;;;12.28;10.38;;;;;;;13.80;100.00;100797.08;1695637;82;21873;-91
2021/09/26 03:38:06;;;;;;;17.25;10.53;;;;;;;13.79;100.00;100790.18;1698943;83;21049;-88
2021/09/26 03:40:33;;;;;;;14.25;9.80;;;;;;;13.81;100.00;100795.27;1682361;83;21089;-89
2021/09/26 03:43:00;;;;;;;12.23;10.30;;;;;;;13.80;100.00;100790.53;1710963;83;21116;-88
2021/09/26 03:45:28;;;;;;;11.83;9.70;;;;;;;13.82;100.00;100789.89;1682599;83;21443;-90
2021/09/26 03:47:55;;;;;;;10.85;9.35;;;;;;;13.82;100.00;100793.82;1698238;83;21777;-92
2021/09/26 03:50:22;;;;;;;12.20;10.00;;;;;;;13.83;100.00;100799.41;1708299;81;21073;-91
2021/09/26 03:52:53;;;;;;;13.35;9.53;;;;;;;13.86;100.00;100795.23;1662257;83;21074;-90
2021/09/26 03:55:26;;;;;;;11.85;10.05;;;;;;;13.87;100.00;100802.59;1696940;83;21554;-92
2021/09/26 03:57:53;;;;;;;14.68;9.45;;;;;;;13.90;100.00;100804.14;1701016;83;21553;-89
2021/09/26 04:00:22;;;;;;;13.80;9.60;;;;;;;13.91;100.00;100803.16;1723681;81;21139;-87
2021/09/26 04:02:49;;;;;;;13.43;10.13;;;;;;;13.93;100.00;100805.16;1740460;81;21046;-86
2021/09/26 04:05:16;;;;;;;13.18;10.30;;;;;;;13.94;100.00;100803.72;1740335;81;21426;-87
2021/09/26 04:07:43;;;;;;;11.40;9.93;;;;;;;13.96;100.00;100806.22;1740635;81;21019;-88
2021/09/26 04:10:11;;;;;;;14.23;10.45;;;;;;;13.96;100.00;100804.91;1711179;82;21029;-87
2021/09/26 04:12:38;;;;;;;15.72;10.18;;;;;;;13.95;100.00;100803.25;1740603;81;21805;-88
2021/09/26 04:15:06;;;;;;;11.03;9.85;;;;;;;13.98;100.00;100805.61;1711540;81;21595;-87
2021/09/26 04:17:34;;;;;;;14.93;11.18;;;;;;;13.98;100.00;100806.92;1748519;81;21052;-89
2021/09/26 04:20:03;;;;;;;10.58;9.53;;;;;;;13.98;100.00;100801.69;1719044;82;21026;-91
2021/09/26 04:22:30;;;;;;;10.80;9.70;;;;;;;13.98;100.00;100801.20;1736124;81;21061;-87
2021/09/26 04:24:57;;;;;;;13.03;11.10;;;;;;;13.97;100.00;100801.34;1694188;83;21033;-86
2021/09/26 04:27:24;;;;;;;12.80;11.12;;;;;;;13.98;100.00;100797.27;1693998;83;21050;-85
2021/09/26 04:29:52;;;;;;;11.48;10.13;;;;;;;14.02;100.00;100800.45;1694927;82;21077;-87
2021/09/26 04:32:22;;;;;;;12.37;10.85;;;;;;;14.03;100.00;100798.99;1699486;82;21678;-88
2021/09/26 04:34:49;;;;;;;13.15;10.60;;;;;;;14.04;100.00;100793.30;1740836;81;21077;-85
2021/09/26 04:37:17;;;;;;;11.53;10.38;;;;;;;14.06;100.00;100795.27;1706568;81;21111;-87
2021/09/26 04:39:44;;;;;;;11.93;10.65;;;;;;;14.07;100.00;100795.63;1694536;83;21061;-88
2021/09/26 04:42:11;;;;;;;12.10;10.53;;;;;;;14.09;100.00;100791.59;1725161;81;20946;-88
2021/09/26 04:44:37;;;;;;;11.97;10.68;;;;;;;14.09;100.00;100792.89;1700391;83;21014;-88
2021/09/26 04:47:05;;;;;;;13.15;10.48;;;;;;;14.08;100.00;100798.59;1697881;83;21033;-88
2021/09/26 04:49:32;;;;;;;11.88;10.65;;;;;;;14.09;100.00;100801.56;1710130;83;21153;-88
2021/09/26 04:52:01;;;;;;;12.28;10.58;;;;;;;14.10;100.00;100805.84;1710677;82;21037;-89
2021/09/26 04:54:28;;;;;;;12.95;11.08;;;;;;;14.12;100.00;100809.16;1695307;82;21527;-89
2021/09/26 04:56:57;;;;;;;13.53;11.57;;;;;;;14.14;100.00;100815.07;1694149;82;21682;-88
2021/09/26 04:59:24;;;;;;;11.40;10.30;;;;;;;14.18;100.00;100813.05;1724819;81;22021;-89
2021/09/26 05:01:52;;;;;;;12.05;10.78;;;;;;;14.22;100.00;100811.80;1725150;81;21136;-88
2021/09/26 05:04:19;;;;;;;12.40;11.15;;;;;;;14.25;100.00;100818.09;1702299;84;21075;-89
2021/09/26 05:06:46;;;;;;;12.80;10.93;;;;;;;14.29;100.00;100813.41;1679868;83;21612;-91
2021/09/26 05:09:13;;;;;;;11.75;10.65;;;;;;;14.34;100.00;100822.98;1669979;84;21020;-88
2021/09/26 05:11:40;;;;;;;12.37;11.05;;;;;;;14.39;100.00;100819.47;1714228;82;20989;-87
2021/09/26 05:14:07;;;;;;;12.88;10.90;;;;;;;14.45;100.00;100821.58;1713724;82;21068;-89
2021/09/26 05:16:34;;;;;;;11.30;10.05;;;;;;;14.53;100.00;100816.13;1714550;82;20977;-88
2021/09/26 05:19:01;;;;;;;11.60;10.23;;;;;;;14.59;100.00;100822.95;1713611;82;21052;-90
2021/09/26 05:21:28;;;;;;;12.68;10.72;;;;;;;14.63;100.00;100824.34;1713762;82;21037;-87
2021/09/26 05:23:55;;;;;;;11.25;10.00;;;;;;;14.66;100.00;100822.77;1742896;82;21061;-89
2021/09/26 05:26:22;;;;;;;12.63;9.50;;;;;;;14.71;100.00;100822.86;1713446;82;21821;-87
2021/09/26 05:28:49;;;;;;;10.88;9.78;;;;;;;14.76;100.00;100822.80;1742781;82;21505;-88
2021/09/26 05:31:16;;;;;;;13.85;10.48;;;;;;;14.77;100.00;100823.16;1743004;82;20978;-90
2021/09/26 05:33:43;;;;;;;11.97;9.33;;;;;;;14.79;100.00;100820.38;1743028;82;20949;-87
2021/09/26 05:36:10;;;;;;;10.85;9.85;;;;;;;14.80;100.00;100824.17;1708589;82;21084;-87
2021/09/26 05:38:36;;;;;;;11.20;9.73;;;;;;;14.82;100.00;100820.93;1745519;81;21477;-88
2021/09/26 05:41:03;;;;;;;12.37;10.20;;;;;;;14.85;100.00;100830.80;1718215;82;20995;-87
2021/09/26 05:43:30;;;;;;;10.93;9.83;;;;;;;14.86;100.00;100821.48;1745667;81;21046;-88
2021/09/26 05:45:57;;;;;;;11.80;9.93;;;;;;;14.88;100.00;100830.51;1742707;81;20979;-90
2021/09/26 05:48:24;;;;;;;10.82;9.73;;;;;;;14.91;100.00;100815.83;1730827;82;21007;-86
2021/09/26 05:50:51;;;;;;;12.18;9.60;;;;;;;14.92;100.00;100818.80;1709250;83;21821;-87
2021/09/26 05:53:20;;;;;;;10.50;9.15;;;;;;;14.96;100.00;100815.76;1722033;81;21469;-87
2021/09/26 05:55:48;;;;;;;12.37;9.73;;;;;;;15.00;100.00;100811.06;1712520;82;21563;-87
2021/09/26 05:58:15;;;;;;;12.05;9.55;;;;;;;14.99;100.00;100816.77;1668862;84;21564;-87
2021/09/26 06:00:42;;;;;;;11.00;9.70;;;;;;;14.99;100.00;100817.27;1682838;83;21632;-90
2021/09/26 06:03:14;;;;;;;11.85;9.10;;;;;;;14.97;100.00;100817.42;1719072;83;21110;-90
2021/09/26 06:05:42;;;;;;;10.03;8.43;;;;;;;15.01;100.00;100820.59;1718893;83;21517;-88
2021/09/26 06:08:11;;;;;;;10.10;9.05;;;;;;;15.10;100.00;100823.66;1687446;83;21097;-88
2021/09/26 06:10:39;;;;;;;13.05;9.38;;;;;;;15.20;100.00;100805.77;1688944;83;21029;-87
2021/09/26 06:13:06;;;;;;;11.75;9.55;;;;;;;15.30;100.00;100798.72;1717947;83;21454;-84
2021/09/26 06:15:34;;;;;;;10.15;9.10;;;;;;;15.41;100.00;100798.56;1665870;84;22303;-86
2021/09/26 06:18:01;;;;;;;10.40;9.13;;;;;;;15.52;100.00;100805.90;1694345;83;21388;-87
2021/09/26 06:20:28;;;;;;;11.53;9.00;;;;;;;15.63;100.00;100814.92;1659969;86;21672;-89
2021/09/26 06:22:55;;;;;;;11.33;8.93;;;;;;;15.70;100.00;100810.75;1636389;86;21100;-88
2021/09/26 06:25:22;;;;;;;10.50;9.28;;;;;;;15.75;100.00;100812.94;1659740;85;21095;-87
2021/09/26 06:27:49;;;;;;;13.22;9.35;;;;;;;15.78;100.00;100821.86;1636424;86;21715;-88
2021/09/26 06:30:16;;;;;;;10.48;8.90;;;;;;;15.78;100.00;100835.80;1636380;86;22412;-90
2021/09/26 06:32:43;;;;;;;8.90;8.00;;;;;;;15.75;100.00;100825.57;1659404;86;21091;-89
2021/09/26 06:35:10;;;;;;;10.08;8.25;;;;;;;15.74;100.00;100825.23;1629463;86;21847;-88
2021/09/26 06:37:37;;;;;;;10.05;8.35;;;;;;;15.73;100.00;100824.91;1635839;86;21141;-90
2021/09/26 06:40:08;;;;;;;9.10;8.13;;;;;;;15.76;100.00;100824.60;1636367;86;21170;-88
2021/09/26 06:42:35;;;;;;;14.13;7.92;;;;;;;15.82;100.00;100813.20;1659168;86;21034;-88
2021/09/26 06:45:04;;;;;;;9.50;8.15;;;;;;;15.91;100.00;100822.38;1659799;85;21560;-87
2021/09/26 06:47:31;;;;;;;12.35;8.30;;;;;;;16.03;100.00;100820.38;1674606;83;21132;-88
2021/09/26 06:49:59;;;;;;;10.00;8.05;;;;;;;16.15;100.00;100821.48;1635919;86;37143;-88
2021/09/26 06:52:26;;;;;;;10.93;7.87;;;;;;;16.22;100.00;100817.31;1635878;86;21913;-88
2021/09/26 06:54:53;;;;;;;10.40;7.30;;;;;;;16.28;100.00;100823.29;1659109;86;21109;-90
2021/09/26 06:57:20;;;;;;;12.10;7.87;;;;;;;16.35;100.00;100814.30;1659098;86;21553;-88
2021/09/26 06:59:47;;;;;;;10.08;7.10;;;;;;;16.39;100.00;100817.80;1659265;86;21031;-87
2021/09/26 07:02:17;;;;;;;10.10;7.40;;;;;;;16.44;100.00;100821.80;1635745;86;21684;-89
2021/09/26 07:04:43;;;;;;;10.00;8.30;;;;;;;16.51;100.00;100822.36;1656107;86;21176;-89
2021/09/26 07:07:10;;;;;;;9.48;7.85;;;;;;;16.58;100.00;100819.97;1614215;86;21053;-89
2021/09/26 07:09:39;;;;;;;7.58;6.80;;;;;;;16.62;100.00;100812.14;1659662;86;21446;-89
2021/09/26 07:12:07;;;;;;;8.30;7.50;;;;;;;16.72;100.00;100819.44;1659576;86;21083;-89
2021/09/26 07:14:34;;;;;;;8.53;6.62;;;;;;;16.86;100.00;100824.66;1659685;85;21592;-90
2021/09/26 07:17:04;;;;;;;7.15;6.33;;;;;;;16.88;100.00;100814.82;1662688;84;21168;-88
2021/09/26 07:19:37;;;;;;;9.63;6.30;;;;;;;16.83;100.00;100824.13;1633919;86;21066;-88
2021/09/26 07:22:08;;;;;;;7.50;6.35;;;;;;;16.82;100.00;100827.27;1666117;86;21105;-85
2021/09/26 07:27:06;;;;;;;8.50;6.53;;;;;;;16.80;100.00;100828.38;1638276;86;21050;-88
2021/09/26 07:29:34;;;;;;;8.25;5.95;;;;;;;16.85;100.00;100835.34;1666123;84;21189;-87
2021/09/26 07:32:05;;;;;;;10.23;5.80;;;;;;;16.88;100.00;100838.96;1663175;86;21095;-88
2021/09/26 07:34:33;;;;;;;6.58;5.70;;;;;;;16.81;100.00;100836.13;1666308;86;21052;-88
2021/09/26 07:37:02;;;;;;;6.53;5.12;;;;;;;16.84;100.00;100829.73;1666019;86;21040;-89
2021/09/26 07:39:29;;;;;;;7.53;5.47;;;;;;;16.91;100.00;100836.04;1666467;84;21043;-89
2021/09/26 07:41:58;;;;;;;5.87;5.17;;;;;;;16.94;100.00;100838.41;1633937;84;21118;-88
2021/09/26 07:44:25;;;;;;;7.72;4.80;;;;;;;17.02;100.00;100846.84;1672874;84;21613;-88
2021/09/26 07:46:52;;;;;;;8.85;5.35;;;;;;;17.18;100.00;100847.47;1615738;87;21109;-88
2021/09/26 07:49:19;;;;;;;7.45;5.67;;;;;;;17.32;100.00;100846.07;1628898;86;20981;-88
2021/09/26 07:51:48;;;;;;;9.53;5.72;;;;;;;17.26;100.00;100846.22;1649085;85;20995;-86
2021/09/26 07:54:16;;;;;;;5.92;4.85;;;;;;;17.21;100.00;100852.91;1630932;86;21124;-88
2021/09/26 07:56:44;;;;;;;6.03;4.80;;;;;;;17.24;100.00;100851.27;1587242;87;21192;-85
2021/09/26 07:59:11;;;;;;;7.62;4.03;;;;;;;17.21;100.00;100851.09;1651740;85;21045;-88
2021/09/26 08:01:38;;;;;;;6.97;5.00;;;;;;;17.15;100.00;100843.82;1629458;86;21165;-87
2021/09/26 08:04:07;;;;;;;5.05;3.80;;;;;;;17.10;100.00;100853.48;1651574;86;21088;-86
2021/09/26 08:06:35;;;;;;;10.25;4.58;;;;;;;17.10;100.00;100855.30;1629855;86;21085;-87
2021/09/26 08:09:05;;;;;;;7.80;4.58;;;;;;;17.06;100.00;100849.52;1651104;85;21035;-87
2021/09/26 08:11:32;;;;;;;6.70;4.42;;;;;;;17.03;100.00;100854.58;1651436;86;21117;-89
2021/09/26 08:14:00;;;;;;;6.17;4.53;;;;;;;16.91;100.00;100850.98;1629856;86;21041;-87
2021/09/26 08:16:29;;;;;;;9.28;5.03;;;;;;;16.90;100.00;100847.53;1628579;85;21165;-87
2021/09/26 08:18:57;;;;;;;8.30;4.75;;;;;;;17.07;100.00;100847.70;1595798;88;21098;-88
2021/09/26 08:21:24;;;;;;;5.42;4.20;;;;;;;17.16;100.00;100846.80;1634357;86;21172;-86
2021/09/26 08:23:53;;;;;;;6.78;3.95;;;;;;;17.10;100.00;100847.41;1613375;87;21002;-89
2021/09/26 08:26:22;;;;;;;9.35;4.20;;;;;;;16.93;100.00;100839.39;1634018;86;21085;-91
2021/09/26 08:28:50;;;;;;;6.80;4.20;;;;;;;16.80;100.00;100842.36;1633929;86;21583;-87
2021/09/26 08:31:18;;;;;;;7.25;4.10;;;;;;;16.84;100.00;100854.22;1613503;87;21172;-88
2021/09/26 08:33:45;;;;;;;5.58;4.20;;;;;;;17.09;100.00;100848.38;1634791;86;21101;-88
2021/09/26 08:36:11;;;;;;;6.80;3.83;;;;;;;17.45;100.00;100841.24;1613458;87;21077;-87
2021/09/26 08:38:38;;;;;;;7.37;4.12;;;;;;;17.64;100.00;100842.83;1634091;87;21037;-90
2021/09/26 08:41:05;;;;;;;5.47;4.20;;;;;;;17.60;100.00;100835.39;1634268;86;21116;-87
2021/09/26 08:43:35;;;;;;;7.17;4.20;;;;;;;17.42;100.00;100848.62;1634013;86;21277;-88
2021/09/26 08:46:03;;;;;;;6.05;3.62;;;;;;;17.19;100.00;100846.47;1656410;84;21020;-87
2021/09/26 08:48:31;;;;;;;7.37;4.00;;;;;;;17.06;100.00;100850.84;1619273;85;21708;-88
2021/09/26 08:50:59;;;;;;;6.67;4.10;;;;;;;17.15;100.00;100860.92;1629866;85;21094;-90
2021/09/26 08:53:26;;;;;;;6.90;3.90;;;;;;;17.40;100.00;100853.20;1670683;85;21104;-85
2021/09/26 08:55:55;;;;;;;5.28;3.40;;;;;;;17.65;100.00;100847.12;1640042;84;21112;-89
2021/09/26 08:58:24;;;;;;;7.35;4.62;;;;;;;17.85;100.00;100857.41;1666471;85;21533;-91
2021/09/26 09:00:51;;;;;;;7.15;4.30;;;;;;;17.89;100.00;100850.86;1636456;86;21050;-90
2021/09/26 09:03:18;;;;;;;12.58;4.70;;;;;;;17.90;100.00;100849.03;1656368;85;21058;-87
2021/09/26 09:05:52;;;;;;;7.60;4.08;;;;;;;17.90;100.00;100855.62;1634709;86;21007;-87
2021/09/26 09:08:23;;;;;;;8.90;4.28;;;;;;;17.84;100.00;100854.94;1671531;83;21825;-86
2021/09/26 09:10:55;;;;;;;6.72;4.28;;;;;;;17.77;100.00;100868.74;1642981;85;21014;-90
2021/09/26 09:13:37;;;;;;;7.92;3.75;;;;;;;17.69;100.00;100867.85;1666982;84;21120;-85
2021/09/26 09:16:09;;;;;;;6.13;3.60;;;;;;;17.59;100.00;100874.05;1664055;85;20987;-88
2021/09/26 09:18:42;;;;;;;;;;;;;;;17.44;100.00;100875.59;1667696;84;21138;-88
2021/09/26 09:21:18;;;;;;;5.80;4.05;;;;;;;17.19;100.00;100872.78;1662773;84;21165;-91
2021/09/26 09:23:46;;;;;;;10.15;4.42;;;;;;;17.00;100.00;100880.36;1654575;85;21057;-89
2021/09/26 09:26:13;;;;;;;7.70;4.35;;;;;;;16.94;100.00;100873.08;1654427;85;21493;-90
2021/09/26 09:28:42;;;;;;;8.08;4.87;;;;;;;17.11;100.00;100868.77;1660434;85;21091;-85
2021/09/26 09:31:11;;;;;;;7.33;4.72;;;;;;;17.39;100.00;100865.53;1664049;84;21019;-90
2021/09/26 09:33:44;;;;;;;7.70;4.45;;;;;;;17.57;100.00;100856.76;1664856;85;21217;-91
2021/09/26 09:36:22;;;;;;;5.05;3.20;;;;;;;17.51;100.00;100866.09;1664417;85;21074;-89
2021/09/26 09:38:56;;;;;;;8.88;3.58;;;;;;;17.34;100.00;100867.80;1664507;84;21552;-89
2021/09/26 09:41:36;;;;;;;5.95;3.20;;;;;;;17.28;100.00;100866.60;1691138;84;21192;-91
2021/09/26 09:44:07;;;;;;;6.17;3.83;;;;;;;17.49;100.00;100854.92;1692170;84;21009;-91
2021/09/26 09:46:37;;;;;;;;;;;;;;;17.84;100.00;100856.25;1694173;82;21091;-85
2021/09/26 09:49:17;;;;;;;7.95;4.12;;;;;;;17.97;100.00;100853.56;1691995;82;20229;-88
2021/09/26 09:51:55;;;;;;;6.65;3.45;;;;;;;17.86;100.00;100856.42;1645882;85;21136;-89
2021/09/26 09:54:30;;;;;;;7.30;3.40;;;;;;;17.65;100.00;100856.80;1665412;84;21571;-87
2021/09/26 09:57:02;;;;;;;5.42;3.75;;;;;;;17.38;100.00;100869.64;1665141;84;21090;-88
2021/09/26 09:59:35;;;;;;;;;;;;;;;17.18;100.00;100862.76;1642379;84;21047;-85
2021/09/26 10:02:04;;;;;;;6.80;3.87;;;;;;;17.21;100.00;100862.94;1684523;84;20218;-88
2021/09/26 10:04:46;;;;;;;5.37;3.85;;;;;;;17.42;100.00;100863.91;1663351;85;21090;-83
2021/09/26 10:07:23;;;;;;;6.65;3.83;;;;;;;17.55;100.00;100870.09;1662993;84;21110;-91
2021/09/26 10:09:51;;;;;;;6.25;4.08;;;;;;;17.70;100.00;100861.61;1684624;83;21160;-82
2021/09/26 10:12:30;;;;;;;5.97;3.42;;;;;;;17.96;100.00;100856.33;1662684;85;21089;-88
2021/09/26 10:15:01;;;;;;;7.97;4.60;;;;;;;18.20;100.00;100854.77;1663571;82;21548;-89
2021/09/26 10:17:28;;;;;;;;;;;;;;;18.45;100.00;100858.32;1664622;84;21521;-83
2021/09/26 10:19:55;;;;;;;8.13;3.25;;;;;;;18.60;100.00;100855.86;1676601;85;20162;-84
2021/09/26 10:22:24;;;;;;;6.50;3.30;;;;;;;18.53;100.00;100855.70;1670410;83;21070;-84
2021/09/26 10:24:55;;;;;;;7.10;3.60;;;;;;;18.34;100.00;100853.34;1658981;84;21057;-85
2021/09/26 10:27:27;;;;;;;6.25;3.12;;;;;;;17.99;100.00;100861.30;1640784;86;21635;-83
2021/09/26 10:30:01;;;;;;;4.55;3.02;;;;;;;17.69;100.00;100859.48;1647115;85;21018;-87
2021/09/26 10:32:28;;;;;;;5.45;2.83;;;;;;;17.46;100.00;100873.64;1684666;83;21034;-84
2021/09/26 10:34:55;;;;;;;4.37;2.90;;;;;;;17.52;100.00;100873.52;1689012;84;21524;-90
2021/09/26 10:37:23;;;;;;;10.88;3.37;;;;;;;17.55;100.00;100879.30;1678449;84;21205;-88
2021/09/26 10:39:51;;;;;;;8.00;3.42;;;;;;;17.43;100.00;100887.94;1659922;83;21344;-86
2021/09/26 10:42:21;;;;;;;6.17;2.70;;;;;;;17.35;100.00;100874.22;1653650;85;21150;-88
2021/09/26 10:44:55;;;;;;;10.50;5.78;;;;;;;17.53;100.00;100878.63;1630933;87;21086;-86
2021/09/26 10:47:30;;;;;;;7.97;5.40;;;;;;;17.82;100.00;100866.95;1652930;85;21039;-86
2021/09/26 10:50:14;;;;;;;7.75;3.90;;;;;;;18.00;100.00;100867.37;1636290;86;20942;-88
2021/09/26 10:52:44;;;;;;;11.70;5.85;;;;;;;17.95;100.00;100869.12;1678400;84;21684;-86
2021/09/26 10:57:29;;;;;;;7.58;3.83;;;;;;;17.51;100.00;100881.89;1851677;76;23255;-84
2021/09/26 10:59:59;;;;;;;10.48;3.37;;;;;;;17.40;100.00;100882.16;1820590;78;20976;-85
2021/09/26 11:02:33;;;;;;;13.65;8.20;;;;;;;17.52;100.00;100875.65;1815537;78;21078;-85
2021/09/26 11:05:04;;;;;;;6.70;4.50;;;;;;;17.58;100.00;100872.42;1812893;78;21029;-85
2021/09/26 11:07:35;;;;;;;9.47;5.33;;;;;;;17.46;100.00;100879.75;1820487;78;21547;-84
2021/09/26 11:10:06;;;;;;;8.55;5.85;;;;;;;17.29;100.00;100877.98;1804093;78;21461;-85
2021/09/26 11:12:39;;;;;;;10.15;7.55;;;;;;;17.26;100.00;100878.27;1783124;78;21030;-85
2021/09/26 11:15:16;;;;;;;10.55;4.20;;;;;;;17.40;100.00;100879.02;1786430;78;21795;-85
2021/09/26 11:17:51;;;;;;;6.10;3.47;;;;;;;17.65;100.00;100869.50;1786063;78;20946;-86
2021/09/26 11:20:38;;;;;;;4.55;2.92;;;;;;;17.93;99.79;100869.80;1789465;78;21012;-85
2021/09/26 11:23:15;;;;;;;8.18;2.87;;;;;;;18.16;100.00;100872.72;1820067;78;21468;-86
2021/09/26 11:26:07;;;;;;;10.50;5.83;;;;;;;18.26;96.51;100876.05;1816627;78;21005;-84
2021/09/26 11:28:40;;;;;;;4.42;2.47;;;;;;;18.16;91.49;100876.66;1755063;80;21065;-84